sensor_id;sensor_type;location;lat;lon;timestamp;P1;durP1;ratioP1;P2;durP2;ratioP2
12816;SDS011;6473;51.552;6.716;2023-02-28T00:01:20;3.87;;;3.47;;
12816;SDS011;6473;51.552;6.716;2023-02-28T00:03:50;4.83;;;3.60;;
12816;SDS011;6473;51.552;6.716;2023-02-28T00:06:18;7.67;;;3.53;;
12816;SDS011;6473;51.552;6.716;2023-02-28T00:08:46;6.23;;;3.07;;
12816;SDS011;6473;51.552;6.716;2023-02-28T00:11:14;5.80;;;3.37;;
12816;SDS011;6473;51.552;6.716;2023-02-28T00:13:43;3.77;;;3.20;;
12816;SDS011;6473;51.552;6.716;2023-02-28T00:16:12;3.30;;;2.97;;
12816;SDS011;6473;51.552;6.716;2023-02-28T00:18:40;4.17;;;2.90;;
12816;SDS011;6473;51.552;6.716;2023-02-28T00:21:08;3.40;;;3.10;;
12816;SDS011;6473;51.552;6.716;2023-02-28T00:23:36;3.67;;;3.20;;
12816;SDS011;6473;51.552;6.716;2023-02-28T00:26:03;3.53;;;3.20;;
12816;SDS011;6473;51.552;6.716;2023-02-28T00:28:31;4.30;;;3.47;;
12816;SDS011;6473;51.552;6.716;2023-02-28T00:36:24;3.63;;;3.33;;
12816;SDS011;6473;51.552;6.716;2023-02-28T00:41:46;5.03;;;3.33;;
12816;SDS011;6473;51.552;6.716;2023-02-28T00:47:04;3.80;;;3.40;;
12816;SDS011;6473;51.552;6.716;2023-02-28T01:03:45;5.67;;;3.40;;
12816;SDS011;6473;51.552;6.716;2023-02-28T01:06:16;4.20;;;3.40;;
12816;SDS011;6473;51.552;6.716;2023-02-28T01:08:43;5.90;;;3.70;;
12816;SDS011;6473;51.552;6.716;2023-02-28T01:11:11;4.03;;;3.13;;
12816;SDS011;6473;51.552;6.716;2023-02-28T01:13:41;5.03;;;3.10;;
12816;SDS011;6473;51.552;6.716;2023-02-28T01:21:37;4.83;;;2.93;;
12816;SDS011;6473;51.552;6.716;2023-02-28T01:38:12;5.93;;;3.83;;
12816;SDS011;6473;51.552;6.716;2023-02-28T01:40:38;3.77;;;3.37;;
12816;SDS011;6473;51.552;6.716;2023-02-28T01:48:25;3.83;;;3.20;;
12816;SDS011;6473;51.552;6.716;2023-02-28T01:50:53;6.13;;;3.50;;
12816;SDS011;6473;51.552;6.716;2023-02-28T01:53:23;5.13;;;3.30;;
12816;SDS011;6473;51.552;6.716;2023-02-28T01:55:56;7.00;;;3.50;;
12816;SDS011;6473;51.552;6.716;2023-02-28T01:58:24;5.00;;;3.60;;
12816;SDS011;6473;51.552;6.716;2023-02-28T02:00:51;5.00;;;3.10;;
12816;SDS011;6473;51.552;6.716;2023-02-28T02:03:19;4.10;;;3.70;;
12816;SDS011;6473;51.552;6.716;2023-02-28T02:05:47;4.53;;;3.27;;
12816;SDS011;6473;51.552;6.716;2023-02-28T02:08:17;4.10;;;3.33;;
12816;SDS011;6473;51.552;6.716;2023-02-28T02:10:47;4.37;;;3.27;;
12816;SDS011;6473;51.552;6.716;2023-02-28T02:13:19;3.77;;;3.40;;
12816;SDS011;6473;51.552;6.716;2023-02-28T02:15:56;4.77;;;3.47;;
12816;SDS011;6473;51.552;6.716;2023-02-28T02:18:29;6.27;;;3.27;;
12816;SDS011;6473;51.552;6.716;2023-02-28T02:21:12;5.30;;;3.20;;
12816;SDS011;6473;51.552;6.716;2023-02-28T02:23:54;4.20;;;3.20;;
12816;SDS011;6473;51.552;6.716;2023-02-28T02:29:21;4.30;;;3.20;;
12816;SDS011;6473;51.552;6.716;2023-02-28T02:34:46;4.80;;;3.20;;
12816;SDS011;6473;51.552;6.716;2023-02-28T02:37:24;5.13;;;3.50;;
12816;SDS011;6473;51.552;6.716;2023-02-28T02:39:56;6.17;;;3.80;;
12816;SDS011;6473;51.552;6.716;2023-02-28T02:42:27;4.13;;;3.70;;
12816;SDS011;6473;51.552;6.716;2023-02-28T02:44:56;5.30;;;3.37;;
12816;SDS011;6473;51.552;6.716;2023-02-28T02:47:27;6.77;;;3.77;;
12816;SDS011;6473;51.552;6.716;2023-02-28T02:49:57;6.50;;;3.80;;
12816;SDS011;6473;51.552;6.716;2023-02-28T02:52:31;5.33;;;3.43;;
12816;SDS011;6473;51.552;6.716;2023-02-28T02:55:00;4.37;;;3.10;;
12816;SDS011;6473;51.552;6.716;2023-02-28T02:57:30;3.87;;;3.47;;
12816;SDS011;6473;51.552;6.716;2023-02-28T02:59:58;3.97;;;3.53;;
12816;SDS011;6473;51.552;6.716;2023-02-28T03:02:29;3.57;;;2.97;;
12816;SDS011;6473;51.552;6.716;2023-02-28T03:05:01;3.73;;;3.10;;
12816;SDS011;6473;51.552;6.716;2023-02-28T03:07:30;4.20;;;3.07;;
12816;SDS011;6473;51.552;6.716;2023-02-28T03:09:57;3.40;;;3.10;;
12816;SDS011;6473;51.552;6.716;2023-02-28T03:12:27;3.57;;;2.90;;
12816;SDS011;6473;51.552;6.716;2023-02-28T03:15:03;3.70;;;3.20;;
12816;SDS011;6473;51.552;6.716;2023-02-28T03:17:41;3.40;;;3.10;;
12816;SDS011;6473;51.552;6.716;2023-02-28T03:20:28;4.80;;;3.20;;
12816;SDS011;6473;51.552;6.716;2023-02-28T03:23:01;4.37;;;3.50;;
12816;SDS011;6473;51.552;6.716;2023-02-28T03:25:34;3.17;;;2.73;;
12816;SDS011;6473;51.552;6.716;2023-02-28T03:28:07;3.97;;;3.43;;
12816;SDS011;6473;51.552;6.716;2023-02-28T03:30:39;5.80;;;3.17;;
12816;SDS011;6473;51.552;6.716;2023-02-28T03:33:09;4.03;;;2.90;;
12816;SDS011;6473;51.552;6.716;2023-02-28T03:35:41;3.70;;;3.20;;
12816;SDS011;6473;51.552;6.716;2023-02-28T03:38:11;3.67;;;3.07;;
12816;SDS011;6473;51.552;6.716;2023-02-28T03:40:41;4.50;;;2.90;;
12816;SDS011;6473;51.552;6.716;2023-02-28T03:43:12;5.37;;;3.20;;
12816;SDS011;6473;51.552;6.716;2023-02-28T03:45:41;3.57;;;2.83;;
12816;SDS011;6473;51.552;6.716;2023-02-28T03:48:13;4.40;;;2.90;;
12816;SDS011;6473;51.552;6.716;2023-02-28T03:50:43;3.10;;;2.70;;
12816;SDS011;6473;51.552;6.716;2023-02-28T03:53:12;3.33;;;2.50;;
12816;SDS011;6473;51.552;6.716;2023-02-28T03:55:42;2.70;;;2.50;;
12816;SDS011;6473;51.552;6.716;2023-02-28T03:58:12;3.17;;;2.53;;
12816;SDS011;6473;51.552;6.716;2023-02-28T04:00:43;2.50;;;2.30;;
12816;SDS011;6473;51.552;6.716;2023-02-28T04:03:12;2.80;;;2.50;;
12816;SDS011;6473;51.552;6.716;2023-02-28T04:05:48;3.60;;;2.50;;
12816;SDS011;6473;51.552;6.716;2023-02-28T04:08:17;3.60;;;2.70;;
12816;SDS011;6473;51.552;6.716;2023-02-28T04:10:45;2.97;;;2.60;;
12816;SDS011;6473;51.552;6.716;2023-02-28T04:13:14;3.17;;;2.30;;
12816;SDS011;6473;51.552;6.716;2023-02-28T04:15:42;2.77;;;2.43;;
12816;SDS011;6473;51.552;6.716;2023-02-28T04:18:10;2.67;;;2.47;;
12816;SDS011;6473;51.552;6.716;2023-02-28T04:20:37;2.37;;;2.17;;
12816;SDS011;6473;51.552;6.716;2023-02-28T04:23:06;2.50;;;2.23;;
12816;SDS011;6473;51.552;6.716;2023-02-28T04:25:36;2.80;;;2.43;;
12816;SDS011;6473;51.552;6.716;2023-02-28T04:30:53;2.70;;;2.20;;
12816;SDS011;6473;51.552;6.716;2023-02-28T04:33:21;5.63;;;2.20;;
12816;SDS011;6473;51.552;6.716;2023-02-28T04:35:57;4.70;;;2.50;;
12816;SDS011;6473;51.552;6.716;2023-02-28T05:08:09;3.87;;;2.43;;
12816;SDS011;6473;51.552;6.716;2023-02-28T05:10:39;2.50;;;2.30;;
12816;SDS011;6473;51.552;6.716;2023-02-28T05:13:08;2.80;;;2.60;;
12816;SDS011;6473;51.552;6.716;2023-02-28T05:15:42;5.13;;;2.70;;
12816;SDS011;6473;51.552;6.716;2023-02-28T05:18:11;4.20;;;2.50;;
12816;SDS011;6473;51.552;6.716;2023-02-28T05:20:42;4.00;;;2.30;;
12816;SDS011;6473;51.552;6.716;2023-02-28T05:23:14;4.90;;;2.07;;
12816;SDS011;6473;51.552;6.716;2023-02-28T06:38:57;4.30;;;2.67;;
12816;SDS011;6473;51.552;6.716;2023-02-28T06:41:33;3.70;;;2.67;;
12816;SDS011;6473;51.552;6.716;2023-02-28T06:44:03;5.40;;;2.70;;
12816;SDS011;6473;51.552;6.716;2023-02-28T06:46:31;4.27;;;2.63;;
12816;SDS011;6473;51.552;6.716;2023-02-28T06:48:59;4.47;;;2.50;;
12816;SDS011;6473;51.552;6.716;2023-02-28T06:51:27;7.43;;;2.57;;
12816;SDS011;6473;51.552;6.716;2023-02-28T06:53:56;3.67;;;2.13;;
12816;SDS011;6473;51.552;6.716;2023-02-28T06:56:23;4.43;;;2.50;;
12816;SDS011;6473;51.552;6.716;2023-02-28T06:58:51;3.60;;;2.90;;
12816;SDS011;6473;51.552;6.716;2023-02-28T07:01:19;4.23;;;3.00;;
12816;SDS011;6473;51.552;6.716;2023-02-28T07:03:48;4.57;;;2.80;;
12816;SDS011;6473;51.552;6.716;2023-02-28T07:06:17;3.87;;;2.87;;
12816;SDS011;6473;51.552;6.716;2023-02-28T07:08:45;5.00;;;2.80;;
12816;SDS011;6473;51.552;6.716;2023-02-28T07:11:14;3.53;;;2.90;;
12816;SDS011;6473;51.552;6.716;2023-02-28T07:13:42;4.80;;;2.90;;
12816;SDS011;6473;51.552;6.716;2023-02-28T07:16:10;3.47;;;2.97;;
12816;SDS011;6473;51.552;6.716;2023-02-28T07:18:38;4.37;;;3.17;;
12816;SDS011;6473;51.552;6.716;2023-02-28T07:21:11;3.63;;;3.17;;
12816;SDS011;6473;51.552;6.716;2023-02-28T07:23:39;5.83;;;3.90;;
12816;SDS011;6473;51.552;6.716;2023-02-28T07:26:10;7.17;;;3.77;;
12816;SDS011;6473;51.552;6.716;2023-02-28T07:28:41;5.00;;;3.20;;
12816;SDS011;6473;51.552;6.716;2023-02-28T07:31:09;3.93;;;2.80;;
12816;SDS011;6473;51.552;6.716;2023-02-28T07:33:39;4.20;;;2.80;;
12816;SDS011;6473;51.552;6.716;2023-02-28T07:36:07;5.73;;;2.90;;
12816;SDS011;6473;51.552;6.716;2023-02-28T07:38:39;4.33;;;2.80;;
12816;SDS011;6473;51.552;6.716;2023-02-28T07:41:07;4.73;;;3.67;;
12816;SDS011;6473;51.552;6.716;2023-02-28T07:43:35;5.77;;;3.00;;
12816;SDS011;6473;51.552;6.716;2023-02-28T07:46:05;3.43;;;3.00;;
12816;SDS011;6473;51.552;6.716;2023-02-28T07:48:33;6.97;;;3.50;;
12816;SDS011;6473;51.552;6.716;2023-02-28T07:51:00;4.90;;;3.13;;
12816;SDS011;6473;51.552;6.716;2023-02-28T07:53:28;4.93;;;3.40;;
12816;SDS011;6473;51.552;6.716;2023-02-28T07:55:56;4.87;;;3.30;;
12816;SDS011;6473;51.552;6.716;2023-02-28T07:58:24;6.23;;;3.00;;
12816;SDS011;6473;51.552;6.716;2023-02-28T08:00:52;3.40;;;3.10;;
12816;SDS011;6473;51.552;6.716;2023-02-28T08:03:21;4.87;;;3.33;;
12816;SDS011;6473;51.552;6.716;2023-02-28T08:05:49;3.90;;;2.77;;
12816;SDS011;6473;51.552;6.716;2023-02-28T08:08:17;4.07;;;2.93;;
12816;SDS011;6473;51.552;6.716;2023-02-28T08:10:45;3.33;;;3.03;;
12816;SDS011;6473;51.552;6.716;2023-02-28T08:13:12;3.63;;;2.83;;
12816;SDS011;6473;51.552;6.716;2023-02-28T08:15:40;5.43;;;3.17;;
12816;SDS011;6473;51.552;6.716;2023-02-28T08:18:08;3.57;;;2.90;;
12816;SDS011;6473;51.552;6.716;2023-02-28T08:20:37;2.90;;;2.63;;
12816;SDS011;6473;51.552;6.716;2023-02-28T08:23:04;5.90;;;2.90;;
12816;SDS011;6473;51.552;6.716;2023-02-28T08:25:31;3.70;;;2.47;;
12816;SDS011;6473;51.552;6.716;2023-02-28T08:27:59;2.63;;;2.42;;
12816;SDS011;6473;51.552;6.716;2023-02-28T08:30:26;7.15;;;2.75;;
12816;SDS011;6473;51.552;6.716;2023-02-28T08:32:53;4.07;;;2.38;;
12816;SDS011;6473;51.552;6.716;2023-02-28T08:35:20;4.78;;;2.50;;
12816;SDS011;6473;51.552;6.716;2023-02-28T08:37:49;7.35;;;2.47;;
12816;SDS011;6473;51.552;6.716;2023-02-28T08:40:16;6.07;;;2.83;;
12816;SDS011;6473;51.552;6.716;2023-02-28T08:42:44;2.70;;;2.38;;
12816;SDS011;6473;51.552;6.716;2023-02-28T08:45:11;2.92;;;2.55;;
12816;SDS011;6473;51.552;6.716;2023-02-28T08:47:38;4.28;;;2.17;;
12816;SDS011;6473;51.552;6.716;2023-02-28T08:50:05;2.63;;;2.20;;
12816;SDS011;6473;51.552;6.716;2023-02-28T08:52:33;2.30;;;2.10;;
12816;SDS011;6473;51.552;6.716;2023-02-28T08:55:02;4.47;;;2.10;;
12816;SDS011;6473;51.552;6.716;2023-02-28T08:57:29;2.20;;;2.00;;
12816;SDS011;6473;51.552;6.716;2023-02-28T08:59:56;5.13;;;2.35;;
12816;SDS011;6473;51.552;6.716;2023-02-28T09:02:23;2.95;;;2.13;;
12816;SDS011;6473;51.552;6.716;2023-02-28T09:04:49;1.98;;;1.88;;
12816;SDS011;6473;51.552;6.716;2023-02-28T09:07:17;3.42;;;2.00;;
12816;SDS011;6473;51.552;6.716;2023-02-28T09:09:43;2.35;;;2.00;;
12816;SDS011;6473;51.552;6.716;2023-02-28T09:12:21;2.53;;;2.22;;
12816;SDS011;6473;51.552;6.716;2023-02-28T09:14:47;2.30;;;2.10;;
12816;SDS011;6473;51.552;6.716;2023-02-28T09:17:14;4.93;;;2.10;;
12816;SDS011;6473;51.552;6.716;2023-02-28T09:19:41;2.55;;;2.05;;
12816;SDS011;6473;51.552;6.716;2023-02-28T09:22:09;7.35;;;2.78;;
12816;SDS011;6473;51.552;6.716;2023-02-28T09:24:36;2.10;;;1.90;;
12816;SDS011;6473;51.552;6.716;2023-02-28T09:27:04;3.22;;;1.80;;
12816;SDS011;6473;51.552;6.716;2023-02-28T09:29:33;2.33;;;2.15;;
12816;SDS011;6473;51.552;6.716;2023-02-28T09:32:01;2.22;;;2.03;;
12816;SDS011;6473;51.552;6.716;2023-02-28T09:34:30;3.67;;;2.05;;
12816;SDS011;6473;51.552;6.716;2023-02-28T09:36:58;3.17;;;2.10;;
12816;SDS011;6473;51.552;6.716;2023-02-28T09:39:25;1.75;;;1.65;;
12816;SDS011;6473;51.552;6.716;2023-02-28T09:41:53;1.75;;;1.65;;
12816;SDS011;6473;51.552;6.716;2023-02-28T09:44:24;1.75;;;1.65;;
12816;SDS011;6473;51.552;6.716;2023-02-28T09:46:57;2.28;;;1.63;;
12816;SDS011;6473;51.552;6.716;2023-02-28T09:49:28;4.22;;;2.00;;
12816;SDS011;6473;51.552;6.716;2023-02-28T09:52:01;2.83;;;1.70;;
12816;SDS011;6473;51.552;6.716;2023-02-28T09:54:31;1.55;;;1.45;;
12816;SDS011;6473;51.552;6.716;2023-02-28T09:57:00;5.15;;;1.75;;
12816;SDS011;6473;51.552;6.716;2023-02-28T09:59:36;2.55;;;1.40;;
12816;SDS011;6473;51.552;6.716;2023-02-28T10:02:21;12.32;;;2.85;;
12816;SDS011;6473;51.552;6.716;2023-02-28T10:05:05;1.25;;;1.15;;
12816;SDS011;6473;51.552;6.716;2023-02-28T10:07:39;1.55;;;1.45;;
12816;SDS011;6473;51.552;6.716;2023-02-28T10:10:19;1.50;;;1.40;;
12816;SDS011;6473;51.552;6.716;2023-02-28T10:12:50;2.30;;;1.58;;
12816;SDS011;6473;51.552;6.716;2023-02-28T10:15:21;1.40;;;1.30;;
12816;SDS011;6473;51.552;6.716;2023-02-28T10:17:53;1.35;;;1.25;;
12816;SDS011;6473;51.552;6.716;2023-02-28T10:20:23;2.70;;;1.50;;
12816;SDS011;6473;51.552;6.716;2023-02-28T10:22:57;7.57;;;1.92;;
12816;SDS011;6473;51.552;6.716;2023-02-28T10:25:32;1.65;;;1.50;;
12816;SDS011;6473;51.552;6.716;2023-02-28T10:28:04;1.90;;;1.70;;
12816;SDS011;6473;51.552;6.716;2023-02-28T10:30:36;5.68;;;1.63;;
12816;SDS011;6473;51.552;6.716;2023-02-28T10:33:10;1.33;;;1.23;;
12816;SDS011;6473;51.552;6.716;2023-02-28T10:35:45;1.30;;;1.20;;
12816;SDS011;6473;51.552;6.716;2023-02-28T10:38:14;2.10;;;1.58;;
12816;SDS011;6473;51.552;6.716;2023-02-28T10:40:43;2.05;;;1.40;;
12816;SDS011;6473;51.552;6.716;2023-02-28T10:43:18;1.10;;;1.10;;
12816;SDS011;6473;51.552;6.716;2023-02-28T10:45:53;1.73;;;1.48;;
12816;SDS011;6473;51.552;6.716;2023-02-28T10:48:30;3.60;;;1.52;;
12816;SDS011;6473;51.552;6.716;2023-02-28T10:51:00;2.15;;;1.55;;
12816;SDS011;6473;51.552;6.716;2023-02-28T10:53:33;1.80;;;1.42;;
12816;SDS011;6473;51.552;6.716;2023-02-28T10:56:04;2.13;;;1.77;;
12816;SDS011;6473;51.552;6.716;2023-02-28T10:58:42;2.70;;;2.50;;
12816;SDS011;6473;51.552;6.716;2023-02-28T11:01:15;1.98;;;1.77;;
12816;SDS011;6473;51.552;6.716;2023-02-28T11:03:44;1.77;;;1.60;;
12816;SDS011;6473;51.552;6.716;2023-02-28T11:06:13;1.75;;;1.65;;
12816;SDS011;6473;51.552;6.716;2023-02-28T11:08:43;1.80;;;1.70;;
12816;SDS011;6473;51.552;6.716;2023-02-28T11:11:13;2.47;;;1.90;;
12816;SDS011;6473;51.552;6.716;2023-02-28T11:13:42;2.40;;;2.20;;
12816;SDS011;6473;51.552;6.716;2023-02-28T11:16:12;3.55;;;2.38;;
12816;SDS011;6473;51.552;6.716;2023-02-28T11:18:41;2.50;;;2.30;;
12816;SDS011;6473;51.552;6.716;2023-02-28T11:21:18;1.83;;;1.73;;
12816;SDS011;6473;51.552;6.716;2023-02-28T11:23:49;2.08;;;1.90;;
12816;SDS011;6473;51.552;6.716;2023-02-28T11:29:09;4.45;;;2.20;;
12816;SDS011;6473;51.552;6.716;2023-02-28T11:31:38;2.92;;;2.17;;
12816;SDS011;6473;51.552;6.716;2023-02-28T11:36:53;3.33;;;1.85;;
12816;SDS011;6473;51.552;6.716;2023-02-28T11:39:21;6.63;;;2.10;;
12816;SDS011;6473;51.552;6.716;2023-02-28T11:41:59;2.25;;;2.05;;
12816;SDS011;6473;51.552;6.716;2023-02-28T11:47:26;2.45;;;1.88;;
12816;SDS011;6473;51.552;6.716;2023-02-28T11:50:07;2.30;;;2.10;;
12816;SDS011;6473;51.552;6.716;2023-02-28T11:52:50;2.00;;;1.90;;
12816;SDS011;6473;51.552;6.716;2023-02-28T11:55:21;2.72;;;1.90;;
12816;SDS011;6473;51.552;6.716;2023-02-28T11:58:02;2.78;;;1.90;;
12816;SDS011;6473;51.552;6.716;2023-02-28T12:01:06;4.78;;;1.90;;
12816;SDS011;6473;51.552;6.716;2023-02-28T12:03:45;1.50;;;1.40;;
12816;SDS011;6473;51.552;6.716;2023-02-28T12:06:25;4.07;;;2.15;;
12816;SDS011;6473;51.552;6.716;2023-02-28T12:09:03;3.30;;;1.63;;
12816;SDS011;6473;51.552;6.716;2023-02-28T12:11:43;2.10;;;1.85;;
12816;SDS011;6473;51.552;6.716;2023-02-28T12:14:21;3.00;;;1.90;;
12816;SDS011;6473;51.552;6.716;2023-02-28T12:17:12;3.30;;;1.80;;
12816;SDS011;6473;51.552;6.716;2023-02-28T12:19:48;3.25;;;1.77;;
12816;SDS011;6473;51.552;6.716;2023-02-28T12:22:30;3.85;;;1.88;;
12816;SDS011;6473;51.552;6.716;2023-02-28T12:27:58;1.92;;;1.73;;
12816;SDS011;6473;51.552;6.716;2023-02-28T12:30:27;7.88;;;2.38;;
12816;SDS011;6473;51.552;6.716;2023-02-28T12:32:56;1.88;;;1.77;;
12816;SDS011;6473;51.552;6.716;2023-02-28T12:35:32;1.70;;;1.60;;
12816;SDS011;6473;51.552;6.716;2023-02-28T12:38:03;1.80;;;1.70;;
12816;SDS011;6473;51.552;6.716;2023-02-28T12:40:40;1.92;;;1.73;;
12816;SDS011;6473;51.552;6.716;2023-02-28T12:43:12;1.55;;;1.45;;
12816;SDS011;6473;51.552;6.716;2023-02-28T12:45:42;2.25;;;2.15;;
12816;SDS011;6473;51.552;6.716;2023-02-28T12:48:14;2.00;;;1.90;;
12816;SDS011;6473;51.552;6.716;2023-02-28T12:50:44;5.15;;;2.65;;
12816;SDS011;6473;51.552;6.716;2023-02-28T12:53:17;6.82;;;2.20;;
12816;SDS011;6473;51.552;6.716;2023-02-28T12:55:54;1.95;;;1.85;;
12816;SDS011;6473;51.552;6.716;2023-02-28T12:58:30;10.10;;;2.00;;
12816;SDS011;6473;51.552;6.716;2023-02-28T13:04:11;2.88;;;2.28;;
12816;SDS011;6473;51.552;6.716;2023-02-28T13:07:08;2.08;;;1.90;;
12816;SDS011;6473;51.552;6.716;2023-02-28T13:10:00;5.07;;;2.30;;
12816;SDS011;6473;51.552;6.716;2023-02-28T13:12:29;7.38;;;2.17;;
12816;SDS011;6473;51.552;6.716;2023-02-28T13:15:02;7.13;;;2.00;;
12816;SDS011;6473;51.552;6.716;2023-02-28T13:17:37;1.83;;;1.73;;
12816;SDS011;6473;51.552;6.716;2023-02-28T13:20:13;2.72;;;1.83;;
12816;SDS011;6473;51.552;6.716;2023-02-28T13:22:42;2.17;;;1.73;;
12816;SDS011;6473;51.552;6.716;2023-02-28T13:28:57;2.90;;;1.73;;
12816;SDS011;6473;51.552;6.716;2023-02-28T13:31:33;4.10;;;2.03;;
12816;SDS011;6473;51.552;6.716;2023-02-28T13:34:39;2.20;;;1.90;;
12816;SDS011;6473;51.552;6.716;2023-02-28T13:40:22;1.73;;;1.63;;
12816;SDS011;6473;51.552;6.716;2023-02-28T13:42:54;3.15;;;2.05;;
12816;SDS011;6473;51.552;6.716;2023-02-28T13:45:27;10.15;;;2.35;;
12816;SDS011;6473;51.552;6.716;2023-02-28T13:48:04;3.08;;;1.60;;
12816;SDS011;6473;51.552;6.716;2023-02-28T13:50:44;2.42;;;1.80;;
12816;SDS011;6473;51.552;6.716;2023-02-28T13:53:28;2.53;;;1.63;;
12816;SDS011;6473;51.552;6.716;2023-02-28T13:56:19;1.80;;;1.70;;
12816;SDS011;6473;51.552;6.716;2023-02-28T13:59:02;2.00;;;1.65;;
12816;SDS011;6473;51.552;6.716;2023-02-28T14:01:44;5.50;;;2.00;;
12816;SDS011;6473;51.552;6.716;2023-02-28T14:07:18;2.75;;;1.77;;
12816;SDS011;6473;51.552;6.716;2023-02-28T14:09:49;2.20;;;2.00;;
12816;SDS011;6473;51.552;6.716;2023-02-28T14:15:27;2.00;;;1.80;;
12816;SDS011;6473;51.552;6.716;2023-02-28T14:18:10;1.80;;;1.70;;
12816;SDS011;6473;51.552;6.716;2023-02-28T14:20:43;10.23;;;2.50;;
12816;SDS011;6473;51.552;6.716;2023-02-28T14:23:15;1.70;;;1.60;;
12816;SDS011;6473;51.552;6.716;2023-02-28T14:25:54;2.92;;;1.60;;
12816;SDS011;6473;51.552;6.716;2023-02-28T14:28:37;1.70;;;1.60;;
12816;SDS011;6473;51.552;6.716;2023-02-28T14:31:13;1.73;;;1.48;;
12816;SDS011;6473;51.552;6.716;2023-02-28T14:33:50;1.40;;;1.35;;
12816;SDS011;6473;51.552;6.716;2023-02-28T14:36:31;2.33;;;1.40;;
12816;SDS011;6473;51.552;6.716;2023-02-28T14:39:00;1.70;;;1.60;;
12816;SDS011;6473;51.552;6.716;2023-02-28T14:41:32;1.60;;;1.50;;
12816;SDS011;6473;51.552;6.716;2023-02-28T14:44:02;2.58;;;1.58;;
12816;SDS011;6473;51.552;6.716;2023-02-28T14:46:40;2.85;;;1.60;;
12816;SDS011;6473;51.552;6.716;2023-02-28T14:49:12;1.60;;;1.50;;
12816;SDS011;6473;51.552;6.716;2023-02-28T14:51:43;3.58;;;1.50;;
12816;SDS011;6473;51.552;6.716;2023-02-28T14:54:13;1.70;;;1.45;;
12816;SDS011;6473;51.552;6.716;2023-02-28T14:56:42;6.10;;;2.40;;
12816;SDS011;6473;51.552;6.716;2023-02-28T14:59:26;1.60;;;1.55;;
12816;SDS011;6473;51.552;6.716;2023-02-28T15:04:53;2.38;;;1.52;;
12816;SDS011;6473;51.552;6.716;2023-02-28T15:07:24;2.88;;;1.95;;
12816;SDS011;6473;51.552;6.716;2023-02-28T15:10:15;8.10;;;1.83;;
12816;SDS011;6473;51.552;6.716;2023-02-28T15:12:46;3.30;;;1.80;;
12816;SDS011;6473;51.552;6.716;2023-02-28T15:15:19;4.68;;;1.55;;
12816;SDS011;6473;51.552;6.716;2023-02-28T15:17:49;1.63;;;1.52;;
12816;SDS011;6473;51.552;6.716;2023-02-28T15:20:21;2.05;;;1.50;;
12816;SDS011;6473;51.552;6.716;2023-02-28T15:22:50;1.70;;;1.60;;
12816;SDS011;6473;51.552;6.716;2023-02-28T15:25:20;2.50;;;1.83;;
12816;SDS011;6473;51.552;6.716;2023-02-28T15:27:49;1.77;;;1.67;;
12816;SDS011;6473;51.552;6.716;2023-02-28T15:30:19;2.22;;;1.88;;
12816;SDS011;6473;51.552;6.716;2023-02-28T15:33:01;2.60;;;2.30;;
12816;SDS011;6473;51.552;6.716;2023-02-28T15:35:38;2.55;;;2.35;;
12816;SDS011;6473;51.552;6.716;2023-02-28T15:38:12;2.20;;;1.92;;
12816;SDS011;6473;51.552;6.716;2023-02-28T15:40:42;2.03;;;1.85;;
12816;SDS011;6473;51.552;6.716;2023-02-28T15:43:13;10.38;;;2.42;;
12816;SDS011;6473;51.552;6.716;2023-02-28T15:45:41;2.83;;;2.00;;
12816;SDS011;6473;51.552;6.716;2023-02-28T15:48:14;2.80;;;2.17;;
12816;SDS011;6473;51.552;6.716;2023-02-28T15:50:48;2.40;;;1.92;;
12816;SDS011;6473;51.552;6.716;2023-02-28T15:53:18;3.38;;;2.08;;
12816;SDS011;6473;51.552;6.716;2023-02-28T15:55:52;2.30;;;2.10;;
12816;SDS011;6473;51.552;6.716;2023-02-28T15:58:25;2.05;;;1.90;;
12816;SDS011;6473;51.552;6.716;2023-02-28T16:01:00;3.15;;;1.80;;
12816;SDS011;6473;51.552;6.716;2023-02-28T16:03:35;3.50;;;2.10;;
12816;SDS011;6473;51.552;6.716;2023-02-28T16:06:21;4.75;;;2.08;;
12816;SDS011;6473;51.552;6.716;2023-02-28T16:09:04;2.13;;;1.92;;
12816;SDS011;6473;51.552;6.716;2023-02-28T16:11:33;2.35;;;2.15;;
12816;SDS011;6473;51.552;6.716;2023-02-28T16:14:01;2.17;;;1.98;;
12816;SDS011;6473;51.552;6.716;2023-02-28T16:16:29;8.35;;;2.15;;
12816;SDS011;6473;51.552;6.716;2023-02-28T16:18:58;3.60;;;2.20;;
12816;SDS011;6473;51.552;6.716;2023-02-28T16:21:27;2.10;;;1.95;;
12816;SDS011;6473;51.552;6.716;2023-02-28T16:23:54;2.85;;;1.95;;
12816;SDS011;6473;51.552;6.716;2023-02-28T16:26:22;1.85;;;1.75;;
12816;SDS011;6473;51.552;6.716;2023-02-28T16:28:52;2.38;;;2.17;;
12816;SDS011;6473;51.552;6.716;2023-02-28T16:31:19;3.25;;;2.10;;
12816;SDS011;6473;51.552;6.716;2023-02-28T16:33:47;5.72;;;1.98;;
12816;SDS011;6473;51.552;6.716;2023-02-28T16:36:15;3.90;;;2.20;;
12816;SDS011;6473;51.552;6.716;2023-02-28T16:38:45;2.45;;;2.25;;
12816;SDS011;6473;51.552;6.716;2023-02-28T16:41:12;2.97;;;2.40;;
12816;SDS011;6473;51.552;6.716;2023-02-28T16:43:44;3.42;;;2.30;;
12816;SDS011;6473;51.552;6.716;2023-02-28T16:46:12;2.28;;;2.08;;
12816;SDS011;6473;51.552;6.716;2023-02-28T16:48:39;2.40;;;2.20;;
12816;SDS011;6473;51.552;6.716;2023-02-28T16:51:10;3.15;;;2.30;;
12816;SDS011;6473;51.552;6.716;2023-02-28T16:53:38;5.15;;;2.70;;
12816;SDS011;6473;51.552;6.716;2023-02-28T16:56:06;4.65;;;2.88;;
12816;SDS011;6473;51.552;6.716;2023-02-28T16:58:38;3.17;;;2.55;;
12816;SDS011;6473;51.552;6.716;2023-02-28T17:01:05;5.03;;;2.50;;
12816;SDS011;6473;51.552;6.716;2023-02-28T17:03:32;7.22;;;2.60;;
12816;SDS011;6473;51.552;6.716;2023-02-28T17:06:01;2.67;;;2.20;;
12816;SDS011;6473;51.552;6.716;2023-02-28T17:08:28;3.38;;;2.70;;
12816;SDS011;6473;51.552;6.716;2023-02-28T17:10:57;4.70;;;2.60;;
12816;SDS011;6473;51.552;6.716;2023-02-28T17:13:25;2.35;;;2.15;;
12816;SDS011;6473;51.552;6.716;2023-02-28T17:15:53;6.15;;;2.70;;
12816;SDS011;6473;51.552;6.716;2023-02-28T17:18:20;5.07;;;2.63;;
12816;SDS011;6473;51.552;6.716;2023-02-28T17:20:48;2.75;;;2.53;;
12816;SDS011;6473;51.552;6.716;2023-02-28T17:23:15;3.58;;;2.60;;
12816;SDS011;6473;51.552;6.716;2023-02-28T17:25:42;2.83;;;2.63;;
12816;SDS011;6473;51.552;6.716;2023-02-28T17:28:18;3.97;;;2.55;;
12816;SDS011;6473;51.552;6.716;2023-02-28T17:30:47;2.70;;;2.42;;
12816;SDS011;6473;51.552;6.716;2023-02-28T17:33:14;6.80;;;2.53;;
12816;SDS011;6473;51.552;6.716;2023-02-28T17:35:41;2.60;;;2.40;;
12816;SDS011;6473;51.552;6.716;2023-02-28T17:38:12;4.28;;;2.60;;
12816;SDS011;6473;51.552;6.716;2023-02-28T17:40:42;3.33;;;2.65;;
12816;SDS011;6473;51.552;6.716;2023-02-28T17:43:09;3.78;;;2.50;;
12816;SDS011;6473;51.552;6.716;2023-02-28T17:45:37;5.40;;;2.70;;
12816;SDS011;6473;51.552;6.716;2023-02-28T17:48:06;2.75;;;2.55;;
12816;SDS011;6473;51.552;6.716;2023-02-28T17:50:35;4.25;;;2.30;;
12816;SDS011;6473;51.552;6.716;2023-02-28T17:53:02;3.15;;;2.90;;
12816;SDS011;6473;51.552;6.716;2023-02-28T17:55:29;3.33;;;2.40;;
12816;SDS011;6473;51.552;6.716;2023-02-28T17:57:59;4.25;;;2.60;;
12816;SDS011;6473;51.552;6.716;2023-02-28T18:00:28;4.70;;;2.90;;
12816;SDS011;6473;51.552;6.716;2023-02-28T18:02:57;4.13;;;2.65;;
12816;SDS011;6473;51.552;6.716;2023-02-28T18:05:25;3.90;;;2.92;;
12816;SDS011;6473;51.552;6.716;2023-02-28T18:07:52;8.40;;;3.20;;
12816;SDS011;6473;51.552;6.716;2023-02-28T18:10:20;5.07;;;2.60;;
12816;SDS011;6473;51.552;6.716;2023-02-28T18:12:47;3.00;;;2.70;;
12816;SDS011;6473;51.552;6.716;2023-02-28T18:15:15;6.68;;;3.20;;
12816;SDS011;6473;51.552;6.716;2023-02-28T18:17:45;5.40;;;3.35;;
12816;SDS011;6473;51.552;6.716;2023-02-28T18:20:12;6.43;;;3.97;;
12816;SDS011;6473;51.552;6.716;2023-02-28T18:22:41;7.93;;;3.97;;
12816;SDS011;6473;51.552;6.716;2023-02-28T18:25:08;4.22;;;3.83;;
12816;SDS011;6473;51.552;6.716;2023-02-28T18:27:39;3.92;;;3.20;;
12816;SDS011;6473;51.552;6.716;2023-02-28T18:30:22;4.45;;;3.33;;
12816;SDS011;6473;51.552;6.716;2023-02-28T18:32:49;18.45;;;3.55;;
12816;SDS011;6473;51.552;6.716;2023-02-28T18:35:16;7.18;;;3.30;;
12816;SDS011;6473;51.552;6.716;2023-02-28T18:38:01;4.97;;;3.65;;